createdAt,value
2023-04-23T00:02:15.437Z,100.00
2023-04-23T00:04:49.915Z,100.00
2023-04-23T00:07:18.800Z,100.00
2023-04-23T00:09:45.535Z,100.00
2023-04-23T00:12:12.884Z,100.00
2023-04-23T00:14:40.007Z,100.00
2023-04-23T00:17:06.976Z,100.00
2023-04-23T00:19:34.059Z,100.00
2023-04-23T00:22:01.124Z,100.00
2023-04-23T00:24:28.019Z,100.00
2023-04-23T00:26:54.978Z,100.00
2023-04-23T00:29:21.754Z,100.00
2023-04-23T00:31:48.724Z,100.00
2023-04-23T00:34:15.502Z,100.00
2023-04-23T00:36:42.765Z,100.00
2023-04-23T00:39:10.915Z,100.00
2023-04-23T00:41:37.794Z,100.00
2023-04-23T00:44:04.835Z,100.00
2023-04-23T00:46:32.686Z,100.00
2023-04-23T00:48:59.554Z,100.00
2023-04-23T00:51:26.259Z,100.00
2023-04-23T00:53:53.173Z,100.00
2023-04-23T00:56:20.186Z,100.00
2023-04-23T00:58:46.916Z,100.00
2023-04-23T01:01:14.440Z,100.00
2023-04-23T01:03:42.778Z,100.00
2023-04-23T01:06:09.785Z,100.00
2023-04-23T01:08:36.756Z,100.00
2023-04-23T01:11:03.805Z,100.00
2023-04-23T01:13:32.331Z,100.00
2023-04-23T01:15:59.438Z,100.00
2023-04-23T01:18:27.058Z,100.00
2023-04-23T01:20:53.844Z,100.00
2023-04-23T01:23:21.266Z,100.00
2023-04-23T01:25:48.084Z,100.00
2023-04-23T01:28:15.765Z,100.00
2023-04-23T01:30:43.333Z,100.00
2023-04-23T01:33:10.979Z,100.00
2023-04-23T01:35:37.933Z,100.00
2023-04-23T01:38:05.360Z,100.00
2023-04-23T01:40:32.121Z,100.00
2023-04-23T01:42:58.898Z,100.00
2023-04-23T01:45:26.002Z,100.00
2023-04-23T01:47:53.020Z,100.00
2023-04-23T01:50:22.668Z,100.00
2023-04-23T01:52:50.432Z,100.00
2023-04-23T01:55:18.689Z,100.00
2023-04-23T01:57:46.330Z,100.00
2023-04-23T02:00:15.169Z,100.00
2023-04-23T02:02:44.114Z,100.00
2023-04-23T02:05:16.000Z,100.00
2023-04-23T02:07:43.345Z,100.00
2023-04-23T02:10:10.395Z,100.00
2023-04-23T02:12:38.434Z,100.00
2023-04-23T02:15:06.855Z,100.00
2023-04-23T02:17:34.782Z,100.00
2023-04-23T02:20:01.936Z,100.00
2023-04-23T02:22:29.434Z,100.00
2023-04-23T02:24:56.365Z,100.00
2023-04-23T02:27:23.521Z,100.00
2023-04-23T02:29:51.285Z,100.00
2023-04-23T02:32:18.057Z,100.00
2023-04-23T02:34:44.762Z,100.00
2023-04-23T02:37:11.515Z,100.00
2023-04-23T02:39:38.414Z,100.00
2023-04-23T02:42:06.248Z,100.00
2023-04-23T02:44:33.208Z,100.00
2023-04-23T02:47:00.717Z,100.00
2023-04-23T02:49:27.631Z,100.00
2023-04-23T02:51:54.535Z,100.00
2023-04-23T02:54:21.393Z,100.00
2023-04-23T02:56:48.172Z,100.00
2023-04-23T02:59:15.224Z,100.00
2023-04-23T03:01:44.597Z,100.00
2023-04-23T03:04:11.856Z,100.00
2023-04-23T03:06:38.915Z,100.00
2023-04-23T03:09:06.072Z,100.00
2023-04-23T03:11:33.439Z,100.00
2023-04-23T03:14:00.154Z,100.00
2023-04-23T03:16:27.841Z,100.00
2023-04-23T03:18:54.990Z,100.00
2023-04-23T03:21:21.707Z,100.00
2023-04-23T03:23:49.421Z,100.00
2023-04-23T03:26:16.918Z,100.00
2023-04-23T03:28:43.918Z,100.00
2023-04-23T03:31:10.737Z,100.00
2023-04-23T03:33:37.582Z,100.00
2023-04-23T03:36:05.152Z,100.00
2023-04-23T03:38:32.307Z,100.00
2023-04-23T03:41:00.948Z,100.00
2023-04-23T03:43:27.997Z,100.00
2023-04-23T03:46:03.799Z,100.00
2023-04-23T03:48:33.319Z,100.00
2023-04-23T03:51:02.602Z,100.00
2023-04-23T03:53:39.752Z,100.00
2023-04-23T03:56:27.056Z,100.00
2023-04-23T03:59:12.169Z,100.00
2023-04-23T04:01:39.204Z,100.00
2023-04-23T04:04:06.275Z,100.00
2023-04-23T04:06:33.760Z,100.00
2023-04-23T04:09:00.594Z,100.00
2023-04-23T04:11:28.161Z,100.00
2023-04-23T04:13:54.974Z,100.00
2023-04-23T04:16:22.705Z,100.00
2023-04-23T04:18:49.568Z,100.00
2023-04-23T04:21:16.787Z,100.00
2023-04-23T04:23:47.060Z,100.00
2023-04-23T04:26:14.763Z,100.00
2023-04-23T04:28:41.456Z,100.00
2023-04-23T04:31:09.791Z,100.00
2023-04-23T04:33:39.219Z,100.00
2023-04-23T04:36:08.804Z,100.00
2023-04-23T04:38:38.570Z,100.00
2023-04-23T04:41:07.076Z,100.00
2023-04-23T04:43:34.149Z,100.00
2023-04-23T04:46:01.017Z,100.00
2023-04-23T04:48:27.768Z,100.00
2023-04-23T04:50:54.503Z,100.00
2023-04-23T04:53:21.499Z,100.00
2023-04-23T04:55:48.281Z,100.00
2023-04-23T04:58:15.305Z,100.00
2023-04-23T05:00:42.769Z,100.00
2023-04-23T05:03:12.520Z,100.00
2023-04-23T05:05:40.839Z,100.00
2023-04-23T05:08:08.836Z,100.00
2023-04-23T05:10:35.615Z,100.00
2023-04-23T05:13:02.600Z,100.00
2023-04-23T05:15:29.669Z,100.00
2023-04-23T05:17:56.852Z,100.00
2023-04-23T05:20:23.703Z,100.00
2023-04-23T05:22:50.569Z,100.00
2023-04-23T05:25:17.313Z,100.00
2023-04-23T05:27:44.119Z,100.00
2023-04-23T05:30:11.076Z,100.00
2023-04-23T05:32:38.763Z,100.00
2023-04-23T05:35:06.395Z,100.00
2023-04-23T05:37:33.271Z,100.00
2023-04-23T05:40:00.493Z,100.00
2023-04-23T05:42:27.207Z,100.00
2023-04-23T05:44:55.296Z,100.00
2023-04-23T05:47:22.064Z,100.00
2023-04-23T05:49:48.941Z,100.00
2023-04-23T05:52:15.816Z,100.00
2023-04-23T05:54:42.683Z,100.00
2023-04-23T05:57:11.066Z,100.00
2023-04-23T05:59:39.353Z,100.00
2023-04-23T06:02:08.071Z,100.00
2023-04-23T06:04:35.833Z,100.00
2023-04-23T06:07:03.480Z,100.00
2023-04-23T06:09:30.224Z,96.30
2023-04-23T06:11:58.670Z,92.64
2023-04-23T06:14:25.721Z,85.77
2023-04-23T06:16:52.435Z,77.79
2023-04-23T06:19:19.330Z,74.35
2023-04-23T06:21:46.131Z,71.50
2023-04-23T06:24:12.902Z,65.89
2023-04-23T06:26:39.740Z,58.41
2023-04-23T06:29:10.237Z,54.00
2023-04-23T06:31:59.109Z,48.02
2023-04-23T06:34:25.840Z,47.66
2023-04-23T06:36:53.671Z,45.41
2023-04-23T06:39:21.860Z,43.33
2023-04-23T06:41:48.836Z,42.10
2023-04-23T06:44:42.501Z,42.20
2023-04-23T06:47:09.826Z,40.23
2023-04-23T06:49:36.805Z,39.22
2023-04-23T06:52:03.830Z,40.57
2023-04-23T06:54:33.355Z,40.63
2023-04-23T06:57:00.879Z,39.98
2023-04-23T06:59:27.603Z,40.22
2023-04-23T07:01:54.792Z,41.39
2023-04-23T07:04:21.551Z,40.66
2023-04-23T07:06:48.446Z,40.35
2023-04-23T07:09:15.240Z,39.88
2023-04-23T07:11:41.992Z,37.88
2023-04-23T07:14:10.542Z,35.63
2023-04-23T07:16:37.482Z,34.28
2023-04-23T07:19:04.183Z,33.51
2023-04-23T07:21:32.430Z,32.58
2023-04-23T07:24:00.207Z,32.40
2023-04-23T07:26:27.324Z,32.69
2023-04-23T07:28:54.381Z,32.26
2023-04-23T07:31:28.871Z,32.04
2023-04-23T07:33:55.969Z,31.45
2023-04-23T07:36:22.821Z,31.16
2023-04-23T07:38:50.439Z,31.37
2023-04-23T07:41:17.701Z,31.04
2023-04-23T07:43:44.882Z,31.11
2023-04-23T07:46:11.954Z,29.99
2023-04-23T07:48:39.220Z,30.68
2023-04-23T07:51:06.070Z,29.63
2023-04-23T07:53:33.105Z,29.78
2023-04-23T07:56:00.343Z,29.27
2023-04-23T07:58:27.443Z,28.66
2023-04-23T08:00:54.198Z,28.77
2023-04-23T08:03:21.973Z,27.68
2023-04-23T08:05:49.097Z,26.62
2023-04-23T08:08:15.967Z,26.06
2023-04-23T08:10:42.765Z,26.31
2023-04-23T08:13:09.617Z,25.36
2023-04-23T08:15:36.575Z,25.51
2023-04-23T08:18:04.059Z,25.42
2023-04-23T08:20:31.769Z,25.69
2023-04-23T08:22:58.671Z,25.62
2023-04-23T08:25:25.436Z,26.08
2023-04-23T08:27:52.274Z,26.58
2023-04-23T08:30:19.156Z,26.15
2023-04-23T08:32:48.633Z,25.47
2023-04-23T08:35:15.513Z,25.61
2023-04-23T08:37:42.303Z,26.09
2023-04-23T08:40:09.398Z,25.71
2023-04-23T08:42:43.594Z,26.15
2023-04-23T08:45:10.988Z,27.12
2023-04-23T08:47:42.301Z,27.47
2023-04-23T08:50:13.934Z,28.56
2023-04-23T08:52:44.359Z,29.37
2023-04-23T08:55:11.634Z,29.40
2023-04-23T08:57:39.674Z,29.89
2023-04-23T09:00:10.357Z,29.95
2023-04-23T09:02:42.370Z,30.14
2023-04-23T09:05:09.428Z,30.09
2023-04-23T09:07:36.357Z,29.68
2023-04-23T09:10:04.102Z,30.42
2023-04-23T09:12:31.087Z,30.82
2023-04-23T09:14:57.857Z,31.34
2023-04-23T09:17:26.656Z,30.63
2023-04-23T09:19:53.621Z,30.25
2023-04-23T09:22:39.911Z,30.51
2023-04-23T09:25:10.713Z,30.51
2023-04-23T09:27:38.028Z,30.77
2023-04-23T09:30:07.855Z,30.69
2023-04-23T09:32:35.720Z,31.17
2023-04-23T09:35:06.818Z,31.09
2023-04-23T09:37:34.550Z,29.89
2023-04-23T09:40:05.119Z,29.25
2023-04-23T09:42:32.588Z,27.26
2023-04-23T09:45:03.633Z,27.04
2023-04-23T09:47:34.405Z,26.87
2023-04-23T09:50:01.379Z,27.58
2023-04-23T09:52:30.166Z,26.86
2023-04-23T09:54:58.731Z,25.61
2023-04-23T09:57:25.999Z,26.03
2023-04-23T10:00:06.979Z,26.09
2023-04-23T10:02:48.607Z,25.27
2023-04-23T10:07:50.735Z,26.90
2023-04-23T10:10:19.305Z,25.86
2023-04-23T10:12:55.017Z,25.73
2023-04-23T10:15:24.691Z,25.24
2023-04-23T10:17:52.089Z,26.43
2023-04-23T10:20:20.717Z,27.04
2023-04-23T10:22:47.584Z,26.97
2023-04-23T10:25:14.415Z,26.58
2023-04-23T10:27:53.958Z,26.10
2023-04-23T10:30:22.264Z,25.55
2023-04-23T10:32:49.917Z,26.18
2023-04-23T10:35:16.978Z,25.28
2023-04-23T10:37:44.075Z,25.40
2023-04-23T10:40:13.549Z,25.65
2023-04-23T10:42:40.601Z,26.12
2023-04-23T10:45:23.358Z,25.65
2023-04-23T10:47:54.725Z,26.33
2023-04-23T10:50:26.498Z,26.05
2023-04-23T10:52:54.176Z,26.45
2023-04-23T10:55:22.596Z,26.16
2023-04-23T10:58:01.899Z,25.75
2023-04-23T11:00:44.764Z,25.66
2023-04-23T11:03:44.010Z,25.56
2023-04-23T11:06:37.393Z,25.60
2023-04-23T11:09:34.822Z,25.23
2023-04-23T11:12:03.509Z,25.93
2023-04-23T11:14:35.676Z,26.56
2023-04-23T11:17:04.182Z,26.44
2023-04-23T11:19:36.329Z,25.78
2023-04-23T11:22:19.962Z,25.90
2023-04-23T11:24:49.493Z,25.87
2023-04-23T11:27:18.024Z,26.21
2023-04-23T11:29:45.991Z,25.27
2023-04-23T11:32:15.017Z,25.82
2023-04-23T11:34:47.001Z,25.95
2023-04-23T11:37:14.891Z,27.00
2023-04-23T11:39:51.068Z,27.26
2023-04-23T11:42:19.693Z,27.67
2023-04-23T11:44:47.460Z,27.70
2023-04-23T11:47:16.139Z,26.51
2023-04-23T11:49:43.899Z,26.30
2023-04-23T11:52:11.484Z,25.89
2023-04-23T11:54:41.559Z,26.88
2023-04-23T11:57:09.458Z,27.12
2023-04-23T11:59:36.301Z,27.03
2023-04-23T12:02:03.314Z,26.65
2023-04-23T12:04:30.993Z,26.90
2023-04-23T12:06:58.359Z,25.65
2023-04-23T12:09:27.183Z,25.96
2023-04-23T12:11:53.950Z,26.60
2023-04-23T12:14:28.099Z,26.78
2023-04-23T12:16:55.516Z,27.26
2023-04-23T12:19:27.850Z,26.86
2023-04-23T12:22:02.076Z,26.71
2023-04-23T12:24:46.451Z,27.51
2023-04-23T12:27:15.158Z,27.27
2023-04-23T12:29:43.369Z,26.77
2023-04-23T12:32:11.550Z,26.69
2023-04-23T12:34:52.367Z,26.66
2023-04-23T12:37:29.099Z,27.08
2023-04-23T12:39:58.573Z,27.61
2023-04-23T12:42:26.567Z,27.28
2023-04-23T12:44:58.010Z,27.71
2023-04-23T12:47:25.303Z,28.78
2023-04-23T12:49:56.134Z,28.28
2023-04-23T12:52:22.947Z,28.42
2023-04-23T12:54:55.679Z,27.60
2023-04-23T12:57:23.825Z,28.00
2023-04-23T12:59:51.042Z,28.29
2023-04-23T13:02:18.200Z,28.13
2023-04-23T13:04:46.012Z,27.68
2023-04-23T13:07:14.093Z,28.33
2023-04-23T13:09:40.930Z,28.30
2023-04-23T13:12:08.018Z,28.93
2023-04-23T13:14:42.421Z,29.74
2023-04-23T13:17:09.145Z,30.12
2023-04-23T13:19:40.083Z,30.50
2023-04-23T13:22:07.302Z,31.44
2023-04-23T13:24:34.641Z,31.77
2023-04-23T13:27:01.445Z,31.45
2023-04-23T13:29:29.573Z,31.32
2023-04-23T13:31:56.656Z,31.74
2023-04-23T13:34:23.525Z,32.16
2023-04-23T13:36:50.560Z,31.52
2023-04-23T13:39:18.133Z,31.01
2023-04-23T13:41:47.829Z,30.61
2023-04-23T13:44:18.393Z,31.19
2023-04-23T13:46:45.277Z,30.88
2023-04-23T13:49:12.427Z,30.91
2023-04-23T13:51:39.352Z,29.71
2023-04-23T13:54:06.157Z,29.27
2023-04-23T13:56:33.848Z,28.74
2023-04-23T14:01:33.341Z,28.60
2023-04-23T14:04:00.384Z,28.58
2023-04-23T14:06:29.641Z,27.67
2023-04-23T14:08:56.998Z,26.71
2023-04-23T14:11:24.882Z,25.91
2023-04-23T14:13:52.028Z,26.47
2023-04-23T14:16:18.833Z,26.51
2023-04-23T14:18:45.892Z,26.37
2023-04-23T14:21:14.904Z,25.83
2023-04-23T14:23:44.405Z,25.57
2023-04-23T14:26:11.013Z,25.18
2023-04-23T14:28:44.991Z,25.45
2023-04-23T14:31:12.067Z,25.47
2023-04-23T14:33:38.832Z,25.73
2023-04-23T14:36:08.241Z,26.37
2023-04-23T14:38:35.975Z,26.27
2023-04-23T14:41:05.181Z,25.69
2023-04-23T14:43:33.647Z,25.09
2023-04-23T14:46:01.217Z,25.14
2023-04-23T14:48:28.584Z,25.36
2023-04-23T14:50:55.308Z,25.41
2023-04-23T14:53:22.075Z,25.70
2023-04-23T14:55:48.876Z,26.14
2023-04-23T14:58:15.670Z,26.68
2023-04-23T15:00:42.454Z,26.76
2023-04-23T15:03:10.409Z,26.87
2023-04-23T15:05:39.437Z,27.29
2023-04-23T15:08:06.233Z,27.72
2023-04-23T15:10:33.165Z,27.51
2023-04-23T15:13:12.599Z,27.23
2023-04-23T15:15:47.692Z,27.44
2023-04-23T15:18:14.785Z,27.62
2023-04-23T15:20:42.409Z,27.92
2023-04-23T15:23:09.883Z,27.51
2023-04-23T15:25:38.676Z,27.71
2023-04-23T15:28:06.499Z,27.82
2023-04-23T15:30:33.677Z,28.40
2023-04-23T15:33:00.649Z,28.16
2023-04-23T15:35:29.097Z,28.18
2023-04-23T15:37:56.672Z,28.36
2023-04-23T15:40:23.690Z,29.29
2023-04-23T15:42:50.414Z,28.96
2023-04-23T15:45:17.596Z,30.09
2023-04-23T15:47:44.661Z,30.33
2023-04-23T15:50:12.279Z,30.71
2023-04-23T15:52:41.192Z,31.06
2023-04-23T15:55:08.537Z,31.02
2023-04-23T15:57:35.424Z,30.49
2023-04-23T16:00:02.401Z,31.10
2023-04-23T16:02:39.335Z,31.53
2023-04-23T16:05:06.476Z,31.16
2023-04-23T16:07:33.481Z,30.52
2023-04-23T16:10:00.333Z,30.87
2023-04-23T16:12:27.413Z,31.28
2023-04-23T16:14:54.308Z,30.97
2023-04-23T16:17:22.407Z,30.85
2023-04-23T16:19:49.301Z,30.65
2023-04-23T16:22:16.987Z,30.83
2023-04-23T16:24:44.087Z,31.26
2023-04-23T16:27:11.465Z,31.52
2023-04-23T16:29:38.292Z,32.27
2023-04-23T16:32:06.451Z,33.09
2023-04-23T16:34:34.279Z,33.12
2023-04-23T16:37:00.959Z,33.73
2023-04-23T16:39:27.663Z,34.12
2023-04-23T16:41:54.571Z,34.44
2023-04-23T16:44:21.464Z,34.81
2023-04-23T16:46:48.348Z,35.41
2023-04-23T16:49:15.129Z,35.41
2023-04-23T16:51:41.932Z,35.54
2023-04-23T16:54:08.679Z,35.63
2023-04-23T16:56:36.845Z,35.98
2023-04-23T16:59:04.030Z,36.13
2023-04-23T17:01:31.134Z,35.81
2023-04-23T17:03:58.140Z,35.79
2023-04-23T17:06:27.321Z,36.35
2023-04-23T17:08:57.122Z,36.97
2023-04-23T17:11:25.026Z,37.94
2023-04-23T17:13:53.134Z,38.50
2023-04-23T17:16:20.483Z,39.26
2023-04-23T17:18:47.607Z,40.52
2023-04-23T17:21:15.766Z,41.09
2023-04-23T17:23:42.535Z,41.17
2023-04-23T17:26:09.793Z,41.53
2023-04-23T17:28:36.791Z,41.52
2023-04-23T17:31:03.594Z,41.82
2023-04-23T17:33:30.742Z,42.38
2023-04-23T17:35:57.502Z,42.00
2023-04-23T17:38:25.418Z,42.18
2023-04-23T17:40:52.354Z,41.71
2023-04-23T17:43:19.596Z,41.72
2023-04-23T17:45:47.057Z,42.21
2023-04-23T17:48:14.227Z,42.81
2023-04-23T17:50:41.567Z,43.24
2023-04-23T17:53:09.394Z,42.57
2023-04-23T17:55:36.678Z,42.27
2023-04-23T17:58:06.593Z,42.49
2023-04-23T18:00:38.278Z,43.79
2023-04-23T18:03:05.857Z,43.42
2023-04-23T18:05:35.016Z,43.14
2023-04-23T18:08:02.043Z,43.34
2023-04-23T18:10:29.250Z,43.57
2023-04-23T18:12:56.328Z,44.67
2023-04-23T18:15:25.005Z,44.08
2023-04-23T18:17:55.098Z,44.41
2023-04-23T18:20:24.896Z,45.12
2023-04-23T18:22:55.642Z,46.24
2023-04-23T18:25:24.810Z,47.74
2023-04-23T18:27:52.311Z,48.00
2023-04-23T18:30:22.592Z,48.80
2023-04-23T18:33:28.668Z,49.87
2023-04-23T18:35:58.749Z,50.78
2023-04-23T18:38:40.054Z,51.22
2023-04-23T18:41:06.823Z,51.81
2023-04-23T18:43:34.411Z,53.08
2023-04-23T18:46:01.521Z,53.22
2023-04-23T18:48:35.089Z,52.94
2023-04-23T18:51:12.564Z,53.80
2023-04-23T18:53:39.264Z,53.15
2023-04-23T18:56:06.008Z,52.31
2023-04-23T18:58:32.873Z,53.75
2023-04-23T19:01:00.263Z,55.94
2023-04-23T19:03:28.645Z,57.29
2023-04-23T19:05:55.521Z,57.18
2023-04-23T19:08:27.699Z,58.32
2023-04-23T19:10:55.533Z,58.16
2023-04-23T19:13:22.362Z,58.73
2023-04-23T19:15:50.265Z,58.06
2023-04-23T19:18:17.355Z,62.10
2023-04-23T19:20:44.345Z,69.64
2023-04-23T19:23:14.651Z,73.24
2023-04-23T19:25:41.647Z,69.06
2023-04-23T19:28:08.422Z,72.36
2023-04-23T19:30:35.316Z,75.31
2023-04-23T19:33:03.889Z,77.42
2023-04-23T19:35:31.213Z,79.50
2023-04-23T19:37:58.417Z,82.08
2023-04-23T19:40:25.281Z,83.91
2023-04-23T19:42:52.183Z,84.49
2023-04-23T19:45:19.101Z,85.27
2023-04-23T19:47:45.967Z,90.17
2023-04-23T19:50:13.267Z,87.32
2023-04-23T19:52:40.618Z,85.71
2023-04-23T19:55:07.801Z,85.01
2023-04-23T19:57:35.293Z,86.81
2023-04-23T20:00:05.359Z,87.75
2023-04-23T20:02:34.400Z,91.08
2023-04-23T20:05:04.349Z,94.15
2023-04-23T20:07:32.221Z,97.66
2023-04-23T20:09:59.018Z,97.81
2023-04-23T20:12:25.778Z,95.73
2023-04-23T20:14:53.744Z,93.42
2023-04-23T20:17:20.566Z,89.83
2023-04-23T20:19:49.073Z,88.96
2023-04-23T20:22:16.001Z,86.79
2023-04-23T20:24:45.831Z,85.45
2023-04-23T20:27:12.614Z,84.95
2023-04-23T20:29:39.544Z,86.02
2023-04-23T20:32:06.551Z,90.03
2023-04-23T20:34:33.642Z,95.76
2023-04-23T20:37:01.585Z,99.85
2023-04-23T20:39:29.117Z,100.00
2023-04-23T20:41:57.311Z,100.00
2023-04-23T20:44:24.956Z,100.00
2023-04-23T20:46:52.332Z,100.00
2023-04-23T20:49:19.142Z,100.00
2023-04-23T20:51:46.128Z,100.00
2023-04-23T20:54:12.938Z,100.00
2023-04-23T20:56:40.117Z,100.00
2023-04-23T20:59:06.927Z,100.00
2023-04-23T21:01:33.913Z,100.00
2023-04-23T21:04:01.017Z,100.00
2023-04-23T21:06:30.660Z,99.35
2023-04-23T21:08:57.695Z,99.97
2023-04-23T21:11:25.573Z,99.68
2023-04-23T21:13:52.602Z,100.00
2023-04-23T21:16:19.485Z,100.00
2023-04-23T21:18:46.246Z,100.00
2023-04-23T21:21:13.036Z,100.00
2023-04-23T21:23:39.857Z,100.00
2023-04-23T21:26:07.978Z,100.00
2023-04-23T21:28:35.772Z,100.00
2023-04-23T21:31:43.490Z,100.00
2023-04-23T21:34:10.256Z,99.90
2023-04-23T21:36:37.129Z,99.97
2023-04-23T21:39:03.947Z,97.12
2023-04-23T21:41:30.708Z,95.50
2023-04-23T21:43:57.556Z,95.44
2023-04-23T21:46:24.444Z,95.61
2023-04-23T21:48:52.907Z,95.86
2023-04-23T21:51:22.663Z,96.59
2023-04-23T21:53:49.419Z,95.38
2023-04-23T21:56:16.544Z,94.93
2023-04-23T21:58:43.970Z,96.69
2023-04-23T22:01:10.823Z,98.76
2023-04-23T22:03:41.533Z,100.00
2023-04-23T22:06:09.212Z,100.00
2023-04-23T22:08:39.661Z,100.00
2023-04-23T22:11:07.428Z,100.00
2023-04-23T22:13:34.964Z,100.00
2023-04-23T22:16:03.922Z,100.00
2023-04-23T22:18:34.718Z,100.00
2023-04-23T22:21:01.488Z,100.00
2023-04-23T22:23:28.378Z,100.00
2023-04-23T22:25:55.161Z,100.00
2023-04-23T22:28:21.981Z,100.00
2023-04-23T22:30:49.349Z,100.00
2023-04-23T22:33:16.298Z,100.00
2023-04-23T22:35:43.036Z,100.00
2023-04-23T22:38:10.160Z,100.00
2023-04-23T22:40:36.899Z,100.00
2023-04-23T22:43:03.618Z,100.00
2023-04-23T22:45:30.409Z,100.00
2023-04-23T22:47:57.454Z,100.00
2023-04-23T22:50:24.253Z,100.00
2023-04-23T22:52:51.628Z,100.00
2023-04-23T22:55:18.369Z,100.00
2023-04-23T22:57:45.505Z,100.00
2023-04-23T23:00:12.997Z,100.00
2023-04-23T23:02:39.969Z,100.00
2023-04-23T23:05:07.231Z,100.00
2023-04-23T23:07:34.092Z,100.00
2023-04-23T23:10:03.084Z,100.00
2023-04-23T23:12:30.210Z,100.00
2023-04-23T23:14:56.946Z,100.00
2023-04-23T23:17:23.810Z,100.00
2023-04-23T23:19:50.690Z,100.00
2023-04-23T23:22:17.430Z,100.00
2023-04-23T23:24:44.563Z,100.00
2023-04-23T23:27:11.323Z,100.00
2023-04-23T23:29:38.244Z,100.00
2023-04-23T23:32:04.975Z,100.00
2023-04-23T23:34:32.024Z,100.00
2023-04-23T23:36:58.764Z,100.00
2023-04-23T23:39:26.819Z,100.00
2023-04-23T23:41:53.660Z,100.00
2023-04-23T23:44:20.509Z,100.00
2023-04-23T23:46:47.297Z,100.00
2023-04-23T23:49:14.262Z,100.00
2023-04-23T23:51:41.008Z,100.00
2023-04-23T23:54:07.733Z,100.00
2023-04-23T23:56:34.490Z,100.00
2023-04-23T23:59:01.237Z,100.00
